Smithfield, Maine
Current Conditions -  °F | °C
As of 4:35 AM on Friday 31 Oct 2014 (Local Time) from KWVL Reporting Station
Few Clouds Few Clouds  
Wind Chill: 37°   Ceiling: Unl
Heat Index: 37°   Visibility: 10mi
Dew Point: 28°   Wind: 0mph
Humidity: 70%   Direction: NA
Pressure: 29.98"   Gusts: NA
Location:  44.63°N, 69.83°W
Report Text: KWVL 310835Z 00000KT 10SM FEW048 03/M02 A2998 RMK AO1
Loading
Personal Weather Stations






























Interactive Weather Map
Tropical Storm Tracking
New forecast layout! Learn more

10-Day Weather Forecast

Advertisements
Track Severe Weather on mobile